Time;durP1;ratioP1;P1;durP2;ratioP2;P2;SDS_P1;SDS_P2;PMS_P1;PMS_P2;Temp;Humidity;BMP_temperature;BMP_pressure;BME280_temperature;BME280_humidity;BME280_pressure;Samples;Min_cycle;Max_cycle;Signal;HPM_P1;HPM_P2
2021/12/15 00:02:21;;;;;;;57.50;26.58;;;;;;;;;;4932991;29;20076;-61
2021/12/15 00:04:52;;;;;;;59.42;26.00;;;;;;;;;;4932745;29;20058;-63
2021/12/15 00:07:22;;;;;;;52.05;25.52;;;;;;;;;;4926975;29;20189;-64
2021/12/15 00:09:48;;;;;;;55.60;27.70;;;;;;;;;;4933059;29;20039;-62
2021/12/15 00:12:14;;;;;;;57.22;26.63;;;;;;;;;;4932478;29;20106;-62
2021/12/15 00:14:41;;;;;;;56.42;25.90;;;;;;;;;;4932214;29;20131;-63
2021/12/15 00:17:08;;;;;;;52.80;25.83;;;;;;;;;;4930257;29;20035;-62
2021/12/15 00:19:34;;;;;;;54.13;25.20;;;;;;;;;;4933498;29;20035;-63
2021/12/15 00:22:00;;;;;;;54.10;25.30;;;;;;;;;;4933912;29;20044;-62
2021/12/15 00:24:27;;;;;;;53.25;25.48;;;9.50;99.90;;;;;;4932412;29;20042;-62
2021/12/15 00:26:54;;;;;;;53.65;27.13;;;;;;;;;;4932131;29;20071;-63
2021/12/15 00:29:20;;;;;;;58.35;26.33;;;;;;;;;;4933650;29;20054;-63
2021/12/15 00:31:46;;;;;;;50.83;25.90;;;;;;;;;;4932312;29;20051;-61
2021/12/15 00:34:13;;;;;;;58.80;26.08;;;;;;;;;;4931017;29;20051;-63
2021/12/15 00:36:43;;;;;;;46.05;25.13;;;;;;;;;;4932875;29;20079;-62
2021/12/15 00:39:10;;;;;;;49.95;25.15;;;;;;;;;;4931594;29;20051;-61
2021/12/15 00:41:36;;;;;;;49.67;25.58;;;;;;;;;;4931797;29;20063;-63
2021/12/15 00:44:02;;;;;;;48.13;25.38;;;;;;;;;;4931756;29;20079;-63
2021/12/15 00:46:28;;;;;;;50.20;24.50;;;;;;;;;;4932046;29;20040;-61
2021/12/15 00:48:54;;;;;;;49.42;24.08;;;;;;;;;;4930740;29;20066;-62
2021/12/15 00:51:20;;;;;;;54.92;26.23;;;;;;;;;;4933636;29;20052;-63
2021/12/15 00:53:46;;;;;;;49.33;24.90;;;;;;;;;;4931219;29;20047;-63
2021/12/15 00:56:12;;;;;;;51.35;24.80;;;;;;;;;;4932950;29;20482;-64
2021/12/15 00:58:39;;;;;;;53.92;25.92;;;;;;;;;;4931665;29;20387;-65
2021/12/15 01:01:05;;;;;;;53.35;25.05;;;;;;;;;;4929901;29;20119;-61
2021/12/15 01:03:31;;;;;;;55.33;25.30;;;;;;;;;;4931820;29;20054;-62
2021/12/15 01:06:03;;;;;;;53.97;25.30;;;;;;;;;;4932920;29;20036;-63
2021/12/15 01:08:30;;;;;;;55.80;25.75;;;;;;;;;;4932848;29;20401;-63
2021/12/15 01:11:07;;;;;;;54.00;24.77;;;;;;;;;;4932052;29;20048;-63
2021/12/15 01:21:50;;;;;;;57.47;25.52;;;;;;;;;;4932974;29;20095;-64
2021/12/15 01:24:16;;;;;;;60.60;26.92;;;;;;;;;;4926310;29;20055;-62
2021/12/15 01:26:43;;;;;;;63.17;26.65;;;;;;;;;;4929776;29;20055;-63
2021/12/15 01:29:09;;;;;;;58.15;25.92;;;;;;;;;;4931259;29;20071;-63
2021/12/15 01:31:35;;;;;;;52.83;23.77;;;;;;;;;;4930446;29;20047;-63
2021/12/15 01:34:01;;;;;;;57.53;24.65;;;;;;;;;;4932114;29;20138;-63
2021/12/15 01:36:27;;;;;;;58.03;25.20;;;;;;;;;;4931791;29;20043;-63
2021/12/15 01:38:53;;;;;;;54.42;24.30;;;;;;;;;;4930471;29;20102;-64
2021/12/15 01:41:22;;;;;;;54.95;23.98;;;9.80;99.90;;;;;;4929505;29;20035;-62
2021/12/15 01:49:18;;;;;;;56.55;25.13;;;;;;;;;;4932030;29;20082;-61
2021/12/15 01:51:45;;;;;;;55.17;24.95;;;;;;;;;;4931328;29;20047;-62
2021/12/15 01:54:11;;;;;;;54.75;22.73;;;;;;;;;;4931592;29;20051;-62
2021/12/15 01:56:38;;;;;;;57.47;24.83;;;;;;;;;;4931011;29;20454;-63
2021/12/15 01:59:05;;;;;;;52.13;23.70;;;;;;;;;;4936172;29;20181;-64
2021/12/15 02:01:31;;;;;;;50.83;23.80;;;;;;;;;;4933315;29;20079;-61
2021/12/15 02:03:57;;;;;;;51.17;23.23;;;;;;;;;;4936847;29;20134;-63
2021/12/15 02:06:25;;;;;;;53.38;24.27;;;9.60;99.90;;;;;;4936060;29;20039;-63
2021/12/15 02:08:51;;;;;;;46.85;21.95;;;;;;;;;;4933920;29;20035;-63
2021/12/15 02:11:17;;;;;;;52.83;23.70;;;;;;;;;;4935541;29;20487;-64
2021/12/15 02:13:43;;;;;;;51.63;22.88;;;;;;;;;;4932550;29;20406;-64
2021/12/15 02:16:09;;;;;;;51.47;22.98;;;;;;;;;;4933442;29;20039;-63
2021/12/15 02:18:37;;;;;;;54.30;22.00;;;;;;;;;;4936544;29;20039;-63
2021/12/15 02:21:11;;;;;;;56.65;23.58;;;;;;;;;;4932027;29;20498;-61
2021/12/15 02:23:43;;;;;;;55.22;24.67;;;;;;;;;;4935585;29;20039;-62
2021/12/15 02:26:15;;;;;;;58.17;25.30;;;;;;;;;;4933582;29;20478;-64
2021/12/15 02:28:41;;;;;;;61.67;24.50;;;;;;;;;;4935726;29;20055;-65
2021/12/15 02:38:46;;;;;;;62.03;25.77;;;;;;;;;;4935507;29;20577;-63
2021/12/15 02:41:20;;;;;;;58.50;25.13;;;;;;;;;;4933916;29;20078;-63
2021/12/15 02:43:58;;;;;;;67.43;25.98;;;;;;;;;;4932431;29;20035;-63
2021/12/15 02:46:24;;;;;;;65.32;26.65;;;;;;;;;;4934875;29;20156;-62
2021/12/15 02:48:50;;;;;;;69.90;26.00;;;;;;;;;;4933876;29;20059;-62
2021/12/15 02:51:17;;;;;;;69.50;28.20;;;;;;;;;;4935096;29;20398;-64
2021/12/15 02:53:43;;;;;;;69.88;27.05;;;;;;;;;;4933702;29;20050;-62
2021/12/15 02:56:09;;;;;;;64.85;26.58;;;;;;;;;;4933625;29;20127;-63
2021/12/15 02:58:38;;;;;;;64.18;26.55;;;;;;;;;;4934442;29;20525;-61
2021/12/15 03:01:14;;;;;;;68.15;27.40;;;;;;;;;;4931191;29;20193;-62
2021/12/15 03:06:38;;;;;;;69.07;28.88;;;;;;;;;;4934630;29;20058;-63
2021/12/15 03:17:03;;;;;;;64.72;28.38;;;;;;;;;;4920973;29;20078;-62
2021/12/15 03:19:29;;;;;;;73.47;29.80;;;;;;;;;;4923650;29;20043;-64
2021/12/15 03:21:55;;;;;;;64.82;28.38;;;;;;;;;;4933697;29;20040;-62
2021/12/15 03:24:24;;;;;;;60.75;28.88;;;;;;;;;;4932795;29;20130;-61
2021/12/15 03:27:00;;;;;;;63.95;28.38;;;;;;;;;;4934335;29;20421;-64
2021/12/15 03:33:28;;;;;;;61.90;29.15;;;;;;;;;;4933673;29;20048;-64
2021/12/15 03:35:48;;;;;;;69.55;30.55;;;9.60;99.90;;;;;;4932233;29;20497;-63
2021/12/15 03:38:06;;;;;;;69.13;30.95;;;;;;;;;;4931900;29;20142;-61
2021/12/15 03:40:41;;;;;;;70.45;32.20;;;9.50;99.90;;;;;;4934094;29;20075;-64
2021/12/15 03:43:12;;;;;;;68.05;31.35;;;;;;;;;;4931267;29;20036;-63
2021/12/15 03:45:44;;;;;;;74.65;32.28;;;;;;;;;;4931078;29;20043;-63
2021/12/15 03:48:11;;;;;;;75.38;32.80;;;;;;;;;;4933864;29;20054;-63
2021/12/15 03:50:38;;;;;;;66.78;31.50;;;;;;;;;;4934187;29;20044;-62
2021/12/15 03:53:05;;;;;;;73.22;31.88;;;;;;;;;;4933780;29;20054;-62
2021/12/15 03:55:32;;;;;;;65.53;32.03;;;;;;;;;;4934188;29;20043;-62
2021/12/15 03:57:59;;;;;;;67.47;31.23;;;;;;;;;;4930260;29;20044;-61
2021/12/15 04:00:28;;;;;;;74.40;33.65;;;;;;;;;;4933026;29;20064;-61
2021/12/15 04:02:54;;;;;;;69.20;32.38;;;;;;;;;;4933672;29;20040;-62
2021/12/15 04:05:20;;;;;;;65.13;31.48;;;;;;;;;;4932938;29;20043;-64
2021/12/15 04:07:47;;;;;;;68.32;33.65;;;9.70;99.90;;;;;;4931078;29;20414;-62
2021/12/15 04:10:19;;;;;;;71.55;31.35;;;9.50;99.90;;;;;;4934468;29;20462;-62
2021/12/15 04:12:46;;;;;;;68.15;31.65;;;;;;;;;;4932728;29;20099;-65
2021/12/15 04:15:27;;;;;;;74.18;33.15;;;;;;;;;;4933749;29;20082;-64
2021/12/15 04:17:58;;;;;;;70.72;34.25;;;;;;;;;;4933118;29;20162;-62
2021/12/15 04:20:25;;;;;;;67.30;32.45;;;;;;;;;;4931391;29;20122;-62
2021/12/15 04:22:51;;;;;;;67.15;33.65;;;;;;;;;;4929707;29;20051;-62
2021/12/15 04:25:23;;;;;;;72.32;33.90;;;;;;;;;;4931756;29;20783;-62
2021/12/15 04:27:54;;;;;;;68.47;33.75;;;;;;;;;;4930344;29;20111;-61
2021/12/15 04:30:20;;;;;;;72.85;34.13;;;;;;;;;;4934100;29;20127;-61
2021/12/15 04:32:48;;;;;;;72.68;34.75;;;9.10;99.90;;;;;;4933404;29;20048;-64
2021/12/15 04:35:14;;;;;;;76.95;36.05;;;;;;;;;;4933223;29;20439;-62
2021/12/15 04:37:42;;;;;;;67.03;35.42;;;;;;;;;;4931139;29;20039;-63
2021/12/15 04:40:10;;;;;;;64.45;33.72;;;;;;;;;;4933823;29;20044;-63
2021/12/15 04:42:38;;;;;;;66.50;34.17;;;;;;;;;;4932413;29;20043;-62
2021/12/15 04:45:05;;;;;;;70.50;34.55;;;;;;;;;;4931173;29;20492;-62
2021/12/15 04:47:31;;;;;;;65.45;33.35;;;;;;;;;;4927348;29;20075;-63
2021/12/15 04:49:57;;;;;;;79.15;35.33;;;;;;;;;;4926827;29;20126;-62
2021/12/15 04:52:25;;;;;;;72.15;35.25;;;;;;;;;;4928344;29;20131;-65
2021/12/15 04:54:51;;;;;;;71.53;35.17;;;;;;;;;;4926136;29;20375;-62
2021/12/15 04:57:19;;;;;;;69.28;34.80;;;;;;;;;;4926853;29;20043;-63
2021/12/15 04:59:45;;;;;;;72.55;34.63;;;;;;;;;;4926609;29;20043;-63
2021/12/15 05:02:13;;;;;;;71.85;36.20;;;;;;;;;;4926120;29;20066;-63
2021/12/15 05:04:39;;;;;;;65.47;34.13;;;;;;;;;;4926885;29;20494;-61
2021/12/15 05:07:05;;;;;;;75.57;36.08;;;;;;;;;;4927324;29;20071;-64
2021/12/15 05:09:31;;;;;;;74.07;36.33;;;;;;;;;;4926812;29;20035;-60
2021/12/15 05:11:57;;;;;;;71.85;35.80;;;;;;;;;;4928036;29;20067;-63
2021/12/15 05:14:24;;;;;;;70.95;35.95;;;;;;;;;;4925742;29;20051;-63
2021/12/15 05:16:51;;;;;;;71.97;35.72;;;;;;;;;;4927720;29;20443;-63
2021/12/15 05:19:18;;;;;;;70.82;34.22;;;;;;;;;;4925522;29;20078;-62
2021/12/15 05:21:45;;;;;;;68.47;36.25;;;;;;;;;;4932772;29;20044;-62
2021/12/15 05:24:30;;;;;;;76.10;36.92;;;;;;;;;;4932260;29;20046;-61
2021/12/15 05:26:58;;;;;;;72.75;36.50;;;9.80;99.90;;;;;;4926581;29;20502;-62
2021/12/15 05:29:24;;;;;;;69.85;35.80;;;;;;;;;;4925516;29;20277;-63
2021/12/15 05:31:50;;;;;;;72.70;37.05;;;;;;;;;;4923198;29;20047;-63
2021/12/15 05:34:16;;;;;;;70.88;34.50;;;;;;;;;;4925445;29;20048;-63
2021/12/15 05:36:44;;;;;;;72.63;36.15;;;;;;;;;;4925738;29;20106;-62
2021/12/15 05:39:10;;;;;;;69.63;35.85;;;;;;;;;;4927632;29;20494;-62
2021/12/15 05:41:36;;;;;;;65.55;34.15;;;;;;;;;;4926324;29;20107;-63
2021/12/15 05:44:06;;;;;;;70.55;35.05;;;;;;;;;;4926293;29;20105;-62
2021/12/15 05:46:33;;;;;;;71.80;35.30;;;;;;;;;;4931747;29;20127;-65
2021/12/15 05:48:59;;;;;;;64.70;33.58;;;;;;;;;;4932429;29;20042;-62
2021/12/15 05:51:25;;;;;;;72.40;36.10;;;;;;;;;;4930359;29;20032;-61
2021/12/15 05:53:51;;;;;;;73.22;36.20;;;;;;;;;;4930922;29;20039;-62
2021/12/15 05:56:18;;;;;;;68.50;34.63;;;;;;;;;;4928070;29;20083;-62
2021/12/15 05:58:44;;;;;;;71.22;34.80;;;;;;;;;;4931920;29;20047;-63
2021/12/15 06:01:10;;;;;;;69.13;34.33;;;;;;;;;;4932654;29;20139;-63
2021/12/15 06:03:36;;;;;;;70.82;35.97;;;;;;;;;;4930340;29;20114;-62
2021/12/15 06:06:03;;;;;;;73.15;35.95;;;;;;;;;;4932864;29;20044;-63
2021/12/15 06:08:29;;;;;;;74.00;34.42;;;;;;;;;;4931452;29;20058;-63
2021/12/15 06:10:55;;;;;;;67.60;35.25;;;;;;;;;;4931313;29;20075;-63
2021/12/15 06:13:23;;;;;;;70.53;33.45;;;;;;;;;;4931805;29;20461;-63
2021/12/15 06:15:49;;;;;;;69.80;35.38;;;;;;;;;;4931379;29;20403;-64
2021/12/15 06:18:18;;;;;;;70.30;34.05;;;9.50;99.90;;;;;;4931757;29;20032;-63
2021/12/15 06:20:45;;;;;;;67.40;33.42;;;;;;;;;;4931207;29;20055;-62
2021/12/15 06:23:17;;;;;;;66.05;33.60;;;;;;;;;;4931016;29;20406;-63
2021/12/15 06:25:43;;;;;;;71.82;34.67;;;;;;;;;;4931551;29;20124;-63
2021/12/15 06:28:10;;;;;;;69.75;35.17;;;;;;;;;;4930883;29;20052;-61
2021/12/15 06:30:37;;;;;;;65.10;31.75;;;9.50;99.90;;;;;;4931503;29;20043;-66
2021/12/15 06:33:04;;;;;;;74.32;33.92;;;;;;;;;;4927217;29;20050;-65
2021/12/15 06:35:33;;;;;;;67.38;32.88;;;;;;;;;;4930975;29;20052;-64
2021/12/15 06:37:59;;;;;;;67.43;31.92;;;;;;;;;;4930564;29;20119;-64
2021/12/15 06:40:25;;;;;;;70.22;34.47;;;;;;;;;;4928596;29;20036;-62
2021/12/15 06:42:52;;;;;;;69.38;34.45;;;;;;;;;;4931483;29;20035;-64
2021/12/15 06:45:23;;;;;;;67.60;31.90;;;;;;;;;;4932716;29;20054;-65
2021/12/15 06:58:48;;;;;;;64.82;32.40;;;;;;;;;;4933169;29;20036;-63
2021/12/15 07:01:14;;;;;;;64.07;32.10;;;;;;;;;;4933843;29;20075;-64
2021/12/15 07:03:41;;;;;;;64.68;31.55;;;;;;;;;;4935165;29;20198;-63
2021/12/15 07:06:07;;;;;;;64.28;31.90;;;;;;;;;;4934462;29;20051;-62
2021/12/15 07:08:36;;;;;;;69.38;33.35;;;;;;;;;;4935171;29;20040;-63
2021/12/15 07:11:02;;;;;;;66.28;32.90;;;;;;;;;;4935382;29;20047;-63
2021/12/15 07:13:28;;;;;;;66.90;32.38;;;;;;;;;;4935218;29;20031;-63
2021/12/15 07:16:05;;;;;;;62.15;31.05;;;;;;;;;;4935213;29;20076;-62
2021/12/15 07:18:48;;;;;;;64.32;31.25;;;;;;;;;;4935041;29;20047;-64
2021/12/15 07:21:20;;;;;;;63.25;30.35;;;9.40;99.90;;;;;;4934809;29;20827;-63
2021/12/15 07:23:47;;;;;;;66.82;32.13;;;;;;;;;;4934906;29;20040;-65
2021/12/15 07:26:13;;;;;;;68.90;30.38;;;;;;;;;;4935528;29;20039;-61
2021/12/15 07:28:40;;;;;;;60.15;29.70;;;;;;;;;;4935087;29;20047;-65
2021/12/15 07:31:07;;;;;;;58.65;29.05;;;;;;;;;;4935236;29;20060;-63
2021/12/15 07:33:33;;;;;;;63.58;30.23;;;;;;;;;;4930819;29;20187;-64
2021/12/15 07:35:59;;;;;;;63.53;30.40;;;;;;;;;;4934679;29;20040;-64
2021/12/15 07:38:25;;;;;;;63.70;30.70;;;;;;;;;;4934281;29;20118;-63
2021/12/15 07:40:51;;;;;;;62.15;29.20;;;;;;;;;;4934681;29;20083;-64
2021/12/15 07:43:24;;;;;;;58.72;30.63;;;;;;;;;;4934042;29;20119;-63
2021/12/15 07:45:57;;;;;;;67.35;30.67;;;;;;;;;;4934307;29;20059;-65
2021/12/15 07:48:24;;;;;;;69.15;31.67;;;;;;;;;;4934271;29;20506;-62
2021/12/15 07:50:51;;;;;;;62.75;29.85;;;;;;;;;;4934339;29;20080;-64
2021/12/15 07:53:18;;;;;;;66.57;30.80;;;;;;;;;;4934224;29;20071;-62
2021/12/15 07:55:44;;;;;;;65.82;30.45;;;;;;;;;;4933200;29;20407;-62
2021/12/15 07:58:11;;;;;;;63.30;29.63;;;;;;;;;;4934681;29;20498;-63
2021/12/15 08:00:39;;;;;;;63.15;30.08;;;;;;;;;;4933894;29;20130;-64
2021/12/15 08:03:05;;;;;;;64.43;30.13;;;;;;;;;;4934619;29;20101;-62
2021/12/15 08:05:31;;;;;;;61.40;28.13;;;;;;;;;;4933217;29;20043;-62
2021/12/15 08:07:57;;;;;;;56.95;27.13;;;;;;;;;;4934504;29;20043;-63
2021/12/15 08:10:23;;;;;;;57.75;28.23;;;;;;;;;;4933963;29;20091;-63
2021/12/15 08:12:49;;;;;;;57.92;27.52;;;;;;;;;;4934074;29;20043;-63
2021/12/15 08:15:17;;;;;;;54.35;27.80;;;;;;;;;;4933993;29;20517;-65
2021/12/15 08:17:51;;;;;;;58.70;28.98;;;;;;;;;;4934053;29;20043;-64
2021/12/15 08:20:18;;;;;;;58.92;28.13;;;;;;;;;;4933872;29;20040;-64
2021/12/15 08:22:44;;;;;;;54.88;27.58;;;;;;;;;;4934117;29;20402;-64
2021/12/15 08:25:12;;;;;;;61.53;28.52;;;;;;;;;;4934265;29;20131;-64
2021/12/15 08:27:38;;;;;;;57.28;28.17;;;;;;;;;;4934144;29;20466;-64
2021/12/15 08:30:06;;;;;;;61.53;28.30;;;;;;;;;;4933946;29;20462;-65
2021/12/15 08:32:32;;;;;;;61.33;29.15;;;;;;;;;;4933143;29;20141;-64
2021/12/15 08:34:59;;;;;;;57.42;27.15;;;;;;;;;;4934009;29;20497;-65
2021/12/15 08:37:25;;;;;;;61.53;29.02;;;;;;;;;;4933568;29;20127;-65
2021/12/15 08:39:51;;;;;;;57.72;29.75;;;;;;;;;;4933713;29;20054;-64
2021/12/15 08:42:17;;;;;;;61.35;29.27;;;;;;;;;;4933095;29;20040;-62
2021/12/15 08:44:43;;;;;;;58.80;28.30;;;;;;;;;;4933056;29;20498;-64
2021/12/15 08:47:09;;;;;;;59.05;28.83;;;;;;;;;;4933686;29;20040;-64
2021/12/15 08:49:35;;;;;;;61.97;29.02;;;;;;;;;;4933133;29;20118;-63
2021/12/15 08:52:01;;;;;;;58.10;28.02;;;;;;;;;;4933530;29;20043;-62
2021/12/15 08:54:27;;;;;;;61.50;29.00;;;;;;;;;;4933616;29;20044;-63
2021/12/15 08:56:55;;;;;;;59.67;29.13;;;;;;;;;;4933349;29;20168;-63
2021/12/15 08:59:21;;;;;;;61.35;28.10;;;;;;;;;;4933303;29;20486;-63
2021/12/15 09:01:47;;;;;;;55.55;26.02;;;;;;;;;;4933411;29;20527;-64
2021/12/15 09:04:14;;;;;;;62.22;28.52;;;;;;;;;;4933566;29;20569;-63
2021/12/15 09:06:40;;;;;;;59.13;28.30;;;;;;;;;;4932320;29;20047;-64
2021/12/15 09:09:08;;;;;;;61.38;27.50;;;;;;;;;;4933871;29;20130;-62
2021/12/15 09:11:34;;;;;;;62.97;28.67;;;;;;;;;;4933204;29;20040;-63
2021/12/15 09:14:01;;;;;;;61.35;27.75;;;9.70;99.90;;;;;;4933345;29;20415;-63
2021/12/15 09:16:30;;;;;;;55.78;26.77;;;;;;;;;;4933405;29;20043;-63
2021/12/15 09:18:56;;;;;;;61.40;28.33;;;;;;;;;;4933231;29;20043;-62
2021/12/15 09:21:24;;;;;;;58.30;27.60;;;10.00;99.90;;;;;;4929552;29;20035;-65
2021/12/15 09:23:50;;;;;;;65.35;28.50;;;;;;;;;;4929920;29;20043;-63
2021/12/15 09:26:16;;;;;;;58.28;27.08;;;;;;;;;;4933185;29;20040;-60
2021/12/15 09:28:42;;;;;;;63.42;28.77;;;;;;;;;;4932999;29;20520;-62
2021/12/15 09:31:09;;;;;;;53.65;27.17;;;;;;;;;;4933243;29;20119;-64
2021/12/15 09:33:36;;;;;;;53.60;26.42;;;;;;;;;;4932869;29;20091;-65
2021/12/15 09:36:04;;;;;;;64.13;27.25;;;;;;;;;;4932841;29;20487;-64
2021/12/15 09:38:30;;;;;;;53.72;26.80;;;;;;;;;;4932632;29;20103;-62
2021/12/15 09:41:00;;;;;;;55.95;26.38;;;9.90;99.90;;;;;;4932507;29;20446;-62
2021/12/15 09:43:28;;;;;;;49.92;25.70;;;;;;;;;;4932900;29;20035;-62
2021/12/15 09:46:02;;;;;;;54.95;25.40;;;;;;;;;;4932876;29;20083;-63
2021/12/15 10:04:05;;;;;;;56.00;27.80;;;;;;;;;;5107467;28;20035;-63
2021/12/15 10:06:48;;;;;;;51.08;25.67;;;;;;;;;;5107607;28;20096;-61
2021/12/15 10:17:44;;;;;;;52.60;26.08;;;;;;;;;;5107718;28;20040;-63
2021/12/15 10:20:17;;;;;;;52.58;25.20;;;;;;;;;;5107843;28;20035;-63
2021/12/15 10:22:46;;;;;;;45.22;22.73;;;;;;;;;;5106037;28;20070;-62
2021/12/15 10:25:12;;;;;;;46.83;22.80;;;;;;;;;;5107314;28;20052;-62
2021/12/15 10:27:41;;;;;;;45.55;22.90;;;;;;;;;;5107776;28;20065;-62
2021/12/15 10:30:07;;;;;;;49.60;23.90;;;;;;;;;;5106980;28;20063;-63
2021/12/15 10:32:35;;;;;;;50.25;23.52;;;;;;;;;;5107523;28;20036;-62
2021/12/15 10:35:26;;;;;;;48.35;22.20;;;10.60;99.90;;;;;;5106722;28;20059;-62
2021/12/15 10:38:08;;;;;;;42.05;20.92;;;;;;;;;;5106861;28;20038;-61
2021/12/15 10:40:40;;;;;;;36.53;20.08;;;;;;;;;;5107358;28;20039;-63
2021/12/15 10:43:06;;;;;;;39.10;20.75;;;;;;;;;;5107246;28;20410;-62
2021/12/15 10:45:36;;;;;;;44.75;21.48;;;;;;;;;;5107168;28;20032;-63
2021/12/15 10:48:02;;;;;;;43.28;21.60;;;;;;;;;;5106782;28;20040;-63
2021/12/15 10:50:29;;;;;;;41.38;20.38;;;;;;;;;;5106325;28;20040;-62
2021/12/15 10:52:59;;;;;;;41.78;21.58;;;;;;;;;;5106157;28;20044;-64
2021/12/15 10:55:30;;;;;;;42.50;21.95;;;;;;;;;;5106290;28;20043;-63
2021/12/15 10:57:57;;;;;;;38.13;20.90;;;;;;;;;;5106864;28;20036;-62
2021/12/15 11:00:23;;;;;;;41.30;22.08;;;;;;;;;;5106726;28;20118;-62
2021/12/15 11:02:49;;;;;;;38.67;20.50;;;;;;;;;;5096750;28;20057;-62
2021/12/15 11:05:24;;;;;;;41.92;21.00;;;;;;;;;;5093248;28;20075;-64
2021/12/15 11:07:57;;;;;;;40.35;21.20;;;;;;;;;;5093353;28;20169;-62
2021/12/15 11:10:31;;;;;;;41.63;20.52;;;;;;;;;;5091985;28;20043;-62
2021/12/15 11:13:00;;;;;;;40.80;20.67;;;;;;;;;;5085242;28;20448;-63
2021/12/15 11:15:32;;;;;;;43.20;19.95;;;;;;;;;;5092780;28;20036;-63
2021/12/15 11:18:04;;;;;;;42.15;20.50;;;;;;;;;;5092950;28;20394;-61
2021/12/15 11:20:30;;;;;;;44.20;19.77;;;;;;;;;;5093182;28;20035;-62
2021/12/15 11:23:01;;;;;;;37.85;20.20;;;;;;;;;;5093355;28;20603;-63
2021/12/15 11:25:31;;;;;;;45.13;21.00;;;;;;;;;;5093170;28;20036;-63
2021/12/15 11:28:00;;;;;;;40.95;20.60;;;;;;;;;;5093139;28;20286;-62
2021/12/15 11:30:29;;;;;;;40.60;21.15;;;;;;;;;;5092274;28;20043;-64
2021/12/15 11:32:57;;;;;;;37.03;19.75;;;;;;;;;;5092939;28;20032;-63
2021/12/15 11:35:28;;;;;;;42.63;20.25;;;;;;;;;;5092779;28;20543;-61
2021/12/15 11:38:01;;;;;;;40.97;20.83;;;;;;;;;;5092940;28;20063;-62
2021/12/15 11:40:35;;;;;;;;;;;10.60;99.90;;;;;;5092844;28;20436;-63
2021/12/15 11:43:01;;;;;;;40.03;18.90;;;;;;;;;;5092388;28;19920;-62
2021/12/15 11:45:28;;;;;;;37.30;19.45;;;;;;;;;;5086062;28;20038;-62
2021/12/15 11:48:09;;;;;;;37.72;19.13;;;;;;;;;;5092294;28;20477;-63
2021/12/15 11:50:38;;;;;;;37.10;19.25;;;;;;;;;;5091970;28;20452;-61
2021/12/15 11:53:04;;;;;;;37.40;18.83;;;;;;;;;;5088695;28;20153;-62
2021/12/15 11:55:31;;;;;;;36.90;16.83;;;;;;;;;;5092201;28;20036;-62
2021/12/15 11:57:58;;;;;;;31.95;16.13;;;;;;;;;;5092654;28;20406;-62
2021/12/15 12:00:28;;;;;;;34.22;16.90;;;;;;;;;;5092465;28;20028;-62
2021/12/15 12:02:56;;;;;;;31.13;17.02;;;;;;;;;;5092202;28;20051;-63
2021/12/15 12:05:22;;;;;;;29.00;16.48;;;;;;;;;;5092264;28;20042;-62
2021/12/15 12:07:48;;;;;;;31.70;16.13;;;;;;;;;;5092145;28;20035;-63
2021/12/15 12:10:19;;;;;;;29.30;16.45;;;;;;;;;;5092129;28;20042;-62
2021/12/15 12:12:52;;;;;;;32.40;15.87;;;;;;;;;;5091986;28;20089;-64
2021/12/15 12:15:20;;;;;;;30.42;15.73;;;;;;;;;;5090848;28;20044;-63
2021/12/15 12:17:47;;;;;;;28.17;15.32;;;;;;;;;;5092178;28;20537;-63
2021/12/15 12:20:24;;;;;;;32.40;15.88;;;;;;;;;;5091145;28;20036;-62
2021/12/15 12:22:52;;;;;;;31.20;14.82;;;;;;;;;;5091943;28;20048;-64
2021/12/15 12:25:23;;;;;;;30.02;14.43;;;;;;;;;;5090126;28;20052;-62
2021/12/15 12:27:50;;;;;;;29.20;14.55;;;;;;;;;;5092108;28;20114;-62
2021/12/15 12:30:19;;;;;;;24.40;13.57;;;;;;;;;;5092034;28;20089;-62
2021/12/15 12:32:45;;;;;;;25.15;13.23;;;;;;;;;;5091250;28;20067;-63
2021/12/15 12:35:11;;;;;;;28.38;14.07;;;;;;;;;;5091432;28;20071;-61
2021/12/15 12:37:38;;;;;;;28.30;13.00;;;;;;;;;;5090553;28;20406;-61
2021/12/15 12:40:16;;;;;;;27.88;13.45;;;;;;;;;;5089149;28;20058;-62
2021/12/15 12:42:42;;;;;;;22.58;12.75;;;;;;;;;;5091190;28;20040;-62
2021/12/15 12:45:11;;;;;;;25.60;12.50;;;;;;;;;;5090919;28;20036;-63
2021/12/15 12:47:44;;;;;;;24.60;12.60;;;;;;;;;;5091068;28;20048;-62
2021/12/15 13:01:07;;;;;;;28.55;13.10;;;;;;;;;;5091028;28;20040;-64
2021/12/15 13:03:39;;;;;;;30.13;13.25;;;;;;;;;;5089581;28;20069;-63
2021/12/15 13:06:09;;;;;;;29.80;12.65;;;;;;;;;;5090190;28;20036;-63
2021/12/15 13:08:43;;;;;;;26.48;12.85;;;;;;;;;;5090665;28;20036;-63
2021/12/15 13:11:23;;;;;;;22.17;12.48;;;;;;;;;;5088707;28;20367;-63
2021/12/15 13:14:11;;;;;;;23.48;11.77;;;10.40;99.90;;;;;;5090284;28;20452;-63
2021/12/15 13:16:37;;;;;;;21.70;11.55;;;;;;;;;;5090142;28;20040;-63
2021/12/15 13:19:12;;;;;;;22.00;11.35;;;;;;;;;;5090589;28;20036;-61
2021/12/15 13:21:46;;;;;;;25.48;11.10;;;;;;;;;;5090582;28;20058;-63
2021/12/15 13:30:46;;;;;;;19.70;9.77;;;;;;;;;;5090687;28;20035;-63
2021/12/15 13:33:16;;;;;;;21.58;8.13;;;;;;;;;;5089560;28;20054;-64
2021/12/15 13:35:44;;;;;;;17.85;6.50;;;;;;;;;;5090749;28;20093;-60
2021/12/15 13:38:10;;;;;;;15.48;7.05;;;;;;;;;;5090555;28;20444;-63
2021/12/15 13:40:54;;;;;;;13.20;7.47;;;10.50;99.90;;;;;;5090499;28;20040;-62
2021/12/15 13:43:34;;;;;;;14.38;6.50;;;;;;;;;;5090715;28;20042;-61
2021/12/15 13:46:00;;;;;;;15.05;7.28;;;;;;;;;;5090462;28;20078;-64
2021/12/15 13:48:57;;;;;;;17.80;7.68;;;10.50;99.90;;;;;;5090589;28;20390;-63
2021/12/15 13:52:01;;;;;;;18.55;7.22;;;;;;;;;;5090180;28;20048;-63
2021/12/15 13:54:33;;;;;;;18.20;6.93;;;;;;;;;;5008793;28;20073;-61
2021/12/15 13:57:14;;;;;;;16.60;6.22;;;;;;;;;;5008664;28;20444;-63
2021/12/15 13:59:40;;;;;;;16.42;5.85;;;;;;;;;;5008270;28;20084;-63
2021/12/15 14:02:17;;;;;;;15.23;5.93;;;;;;;;;;5008398;28;20500;-62
2021/12/15 14:04:48;;;;;;;9.57;3.78;;;;;;;;;;5008246;28;20081;-61
2021/12/15 14:07:28;;;;;;;13.23;3.90;;;;;;;;;;4992059;28;20041;-62
2021/12/15 14:09:55;;;;;;;12.75;2.72;;;;;;;;;;4991780;28;20124;-63
2021/12/15 14:12:45;;;;;;;6.55;2.75;;;10.10;99.90;;;;;;5005768;28;20050;-62
2021/12/15 14:15:30;;;;;;;11.57;3.22;;;;;;;;;;5003213;28;20096;-63
2021/12/15 14:17:57;;;;;;;9.13;2.85;;;;;;;;;;5004125;28;20088;-64
2021/12/15 14:20:23;;;;;;;8.82;2.30;;;;;;;;;;5007708;28;20041;-62
2021/12/15 14:22:55;;;;;;;13.40;2.65;;;;;;;;;;5007602;28;20037;-63
2021/12/15 14:25:21;;;;;;;6.03;1.92;;;;;;;;;;5053380;28;20083;-62
2021/12/15 14:27:47;;;;;;;4.95;1.58;;;;;;;;;;5084543;28;20063;-62
2021/12/15 14:30:13;;;;;;;5.75;2.10;;;;;;;;;;5089596;28;20469;-65
2021/12/15 14:32:39;;;;;;;5.72;1.55;;;;;;;;;;5085536;28;20044;-62
2021/12/15 14:35:15;;;;;;;5.25;2.03;;;;;;;;;;5089367;28;20036;-62
2021/12/15 14:37:42;;;;;;;4.68;1.60;;;;;;;;;;5084632;28;20123;-62
2021/12/15 14:40:08;;;;;;;3.88;1.65;;;;;;;;;;5091838;28;20075;-62
2021/12/15 14:42:38;;;;;;;4.05;1.40;;;;;;;;;;5091163;28;20408;-63
2021/12/15 14:45:06;;;;;;;3.97;1.27;;;;;;;;;;5091885;28;20043;-61
2021/12/15 14:47:33;;;;;;;6.80;1.45;;;;;;;;;;5091899;28;20040;-64
2021/12/15 14:50:02;;;;;;;2.33;1.45;;;;;;;;;;5092040;28;20075;-63
2021/12/15 14:52:30;;;;;;;2.70;1.20;;;;;;;;;;5090896;28;20063;-63
2021/12/15 14:54:58;;;;;;;2.80;1.30;;;;;;;;;;5091730;28;20103;-61
2021/12/15 14:57:30;;;;;;;3.60;1.52;;;;;;;;;;5088324;28;20051;-62
2021/12/15 15:00:00;;;;;;;4.63;1.42;;;;;;;;;;5090616;28;20040;-64
2021/12/15 15:02:28;;;;;;;4.22;1.40;;;;;;;;;;5092209;28;20071;-62
2021/12/15 15:04:56;;;;;;;5.78;1.30;;;;;;;;;;5093133;28;20116;-62
2021/12/15 15:07:24;;;;;;;4.90;1.08;;;;;;;;;;5092275;28;20040;-63
2021/12/15 15:09:51;;;;;;;8.60;2.10;;;;;;;;;;5091807;28;20115;-62
2021/12/15 15:12:36;;;;;;;6.45;1.50;;;;;;;;;;5086213;28;20386;-62
2021/12/15 15:15:28;;;;;;;2.60;1.23;;;;;;;;;;5092938;28;20048;-62
2021/12/15 15:18:04;;;;;;;5.53;1.73;;;;;;;;;;5008868;28;20056;-62
2021/12/15 15:20:33;;;;;;;3.63;1.70;;;;;;;;;;5010462;28;20176;-61
2021/12/15 15:23:00;;;;;;;8.93;1.50;;;;;;;;;;5008399;28;20054;-62
2021/12/15 15:25:29;;;;;;;3.85;1.48;;;;;;;;;;4993439;28;20042;-63
2021/12/15 15:27:56;;;;;;;6.05;1.35;;;;;;;;;;5010111;28;20804;-62
2021/12/15 15:30:25;;;;;;;6.05;1.60;;;;;;;;;;5010291;28;20099;-62
2021/12/15 15:32:53;;;;;;;6.07;1.05;;;;;;;;;;5009930;28;20049;-60
2021/12/15 15:35:21;;;;;;;5.20;1.35;;;;;;;;;;4993780;28;20061;-62
2021/12/15 15:37:49;;;;;;;2.80;1.08;;;9.70;99.90;;;;;;5010228;28;20407;-62
2021/12/15 15:40:32;;;;;;;4.97;1.15;;;;;;;;;;5010418;28;20048;-63
2021/12/15 15:43:04;;;;;;;4.60;1.30;;;;;;;;;;5004644;28;20045;-62
2021/12/15 15:45:32;;;;;;;4.95;1.20;;;;;;;;;;5007994;28;20053;-62
2021/12/15 15:48:00;;;;;;;5.40;1.10;;;;;;;;;;5008603;28;20042;-62
2021/12/15 15:50:27;;;;;;;2.08;0.88;;;;;;;;;;5009633;28;20049;-62
2021/12/15 15:52:55;;;;;;;4.53;1.38;;;;;;;;;;5008857;28;20042;-62